sensor_id;sensor_type;location;lat;lon;timestamp;pressure;altitude;pressure_sealevel;temperature;humidity
5877;BME280;2964;42.144;24.730;2024-02-26T00:01:02;144014.66;;;9.76;99.83
5877;BME280;2964;42.144;24.730;2024-02-26T00:03:30;144005.88;;;9.72;99.75
5877;BME280;2964;42.144;24.730;2024-02-26T00:06:01;144002.09;;;9.71;99.74
5877;BME280;2964;42.144;24.730;2024-02-26T00:08:27;144033.50;;;9.83;99.82
5877;BME280;2964;42.144;24.730;2024-02-26T00:10:54;143980.75;;;9.62;100.00
5877;BME280;2964;42.144;24.730;2024-02-26T00:13:21;144073.66;;;10.00;99.66
5877;BME280;2964;42.144;24.730;2024-02-26T00:15:47;144010.91;;;9.74;99.69
5877;BME280;2964;42.144;24.730;2024-02-26T00:18:14;144054.78;;;9.92;99.72
5877;BME280;2964;42.144;24.730;2024-02-26T00:20:42;144028.47;;;9.81;99.69
5877;BME280;2964;42.144;24.730;2024-02-26T00:23:09;144063.59;;;9.96;99.81
5877;BME280;2964;42.144;24.730;2024-02-26T00:25:36;144057.34;;;9.93;99.81
5877;BME280;2964;42.144;24.730;2024-02-26T00:28:03;144030.97;;;9.82;99.79
5877;BME280;2964;42.144;24.730;2024-02-26T00:30:30;144089.97;;;10.07;99.69
5877;BME280;2964;42.144;24.730;2024-02-26T00:32:57;144061.09;;;9.95;99.83
5877;BME280;2964;42.144;24.730;2024-02-26T00:35:23;143998.34;;;9.69;99.56
5877;BME280;2964;42.144;24.730;2024-02-26T00:37:51;144118.88;;;10.18;99.67
5877;BME280;2964;42.144;24.730;2024-02-26T00:40:18;144125.13;;;10.21;99.48
5877;BME280;2964;42.144;24.730;2024-02-26T00:42:45;144128.91;;;10.22;99.53
5877;BME280;2964;42.144;24.730;2024-02-26T00:45:13;144176.66;;;10.42;99.55
5877;BME280;2964;42.144;24.730;2024-02-26T00:47:41;144174.16;;;10.41;99.51
5877;BME280;2964;42.144;24.730;2024-02-26T00:50:08;144196.78;;;10.50;99.44
5877;BME280;2964;42.144;24.730;2024-02-26T00:52:35;144154.03;;;10.33;99.37
5877;BME280;2964;42.144;24.730;2024-02-26T00:55:04;144091.25;;;10.07;99.34
5877;BME280;2964;42.144;24.730;2024-02-26T00:57:31;144061.09;;;9.95;99.44
5877;BME280;2964;42.144;24.730;2024-02-26T00:59:58;144022.16;;;9.79;99.60
5877;BME280;2964;42.144;24.730;2024-02-26T01:02:25;144038.50;;;9.85;99.66
5877;BME280;2964;42.144;24.730;2024-02-26T01:04:52;144072.38;;;9.99;99.59
5877;BME280;2964;42.144;24.730;2024-02-26T01:07:19;144113.84;;;10.16;99.50
5877;BME280;2964;42.144;24.730;2024-02-26T01:09:46;144149.03;;;10.31;99.53
5877;BME280;2964;42.144;24.730;2024-02-26T01:12:14;144174.16;;;10.41;99.43
5877;BME280;2964;42.144;24.730;2024-02-26T01:14:41;144235.72;;;10.66;99.48
5877;BME280;2964;42.144;24.730;2024-02-26T01:17:07;144236.97;;;10.67;99.37
5877;BME280;2964;42.144;24.730;2024-02-26T01:19:34;144267.13;;;10.79;99.42
5877;BME280;2964;42.144;24.730;2024-02-26T01:22:00;144272.16;;;10.81;99.35
5877;BME280;2964;42.144;24.730;2024-02-26T01:24:27;144254.56;;;10.74;99.18
5877;BME280;2964;42.144;24.730;2024-02-26T01:26:54;144345.03;;;11.11;99.43
5877;BME280;2964;42.144;24.730;2024-02-26T01:29:22;144422.94;;;11.43;99.63
5877;BME280;2964;42.144;24.730;2024-02-26T01:31:49;144373.91;;;11.23;99.67
5877;BME280;2964;42.144;24.730;2024-02-26T01:34:15;144346.25;;;11.11;99.44
5877;BME280;2964;42.144;24.730;2024-02-26T01:36:43;144312.34;;;10.97;99.26
5877;BME280;2964;42.144;24.730;2024-02-26T01:39:10;144347.50;;;11.12;99.28
5877;BME280;2964;42.144;24.730;2024-02-26T01:41:38;144308.59;;;10.96;99.28
5877;BME280;2964;42.144;24.730;2024-02-26T01:44:04;144244.53;;;10.70;99.04
5877;BME280;2964;42.144;24.730;2024-02-26T01:46:34;144215.59;;;10.58;99.10
5877;BME280;2964;42.144;24.730;2024-02-26T01:49:02;144236.97;;;10.67;99.12
5877;BME280;2964;42.144;24.730;2024-02-26T01:51:29;144234.44;;;10.66;99.03
5877;BME280;2964;42.144;24.730;2024-02-26T01:53:57;144164.13;;;10.37;99.11
5877;BME280;2964;42.144;24.730;2024-02-26T01:56:25;144180.41;;;10.43;98.93
5877;BME280;2964;42.144;24.730;2024-02-26T01:58:56;144234.44;;;10.66;98.94
5877;BME280;2964;42.144;24.730;2024-02-26T02:01:25;144181.72;;;10.44;99.04
5877;BME280;2964;42.144;24.730;2024-02-26T02:03:56;144224.41;;;10.61;99.08
5877;BME280;2964;42.144;24.730;2024-02-26T02:06:24;144283.44;;;10.86;99.19
5877;BME280;2964;42.144;24.730;2024-02-26T02:08:52;144224.41;;;10.61;98.95
5877;BME280;2964;42.144;24.730;2024-02-26T02:11:19;144103.78;;;10.12;98.94
5877;BME280;2964;42.144;24.730;2024-02-26T02:13:46;144110.06;;;10.15;98.92
5877;BME280;2964;42.144;24.730;2024-02-26T02:16:13;144091.25;;;10.07;98.97
5877;BME280;2964;42.144;24.730;2024-02-26T02:18:39;144039.75;;;9.86;98.87
5877;BME280;2964;42.144;24.730;2024-02-26T02:21:07;144054.78;;;9.92;99.09
5877;BME280;2964;42.144;24.730;2024-02-26T02:23:34;144143.97;;;10.29;98.99
5877;BME280;2964;42.144;24.730;2024-02-26T02:26:01;144120.13;;;10.19;99.05
5877;BME280;2964;42.144;24.730;2024-02-26T02:28:28;144018.41;;;9.77;98.96
5877;BME280;2964;42.144;24.730;2024-02-26T02:30:55;144014.66;;;9.76;99.09
5877;BME280;2964;42.144;24.730;2024-02-26T02:33:22;143975.75;;;9.60;99.27
5877;BME280;2964;42.144;24.730;2024-02-26T02:35:49;144098.75;;;10.10;99.16
5877;BME280;2964;42.144;24.730;2024-02-26T02:38:30;144003.34;;;9.71;99.15
5877;BME280;2964;42.144;24.730;2024-02-26T02:40:59;144015.91;;;9.76;99.25
5877;BME280;2964;42.144;24.730;2024-02-26T02:43:25;143990.78;;;9.66;99.25
5877;BME280;2964;42.144;24.730;2024-02-26T02:45:52;143944.38;;;9.47;99.34
5877;BME280;2964;42.144;24.730;2024-02-26T02:48:19;143924.31;;;9.39;99.66
5877;BME280;2964;42.144;24.730;2024-02-26T02:50:46;143950.63;;;9.50;99.87
5877;BME280;2964;42.144;24.730;2024-02-26T02:53:12;143909.22;;;9.33;100.00
5877;BME280;2964;42.144;24.730;2024-02-26T02:55:42;143907.97;;;9.32;100.00
5877;BME280;2964;42.144;24.730;2024-02-26T02:58:09;143930.56;;;9.41;99.99
5877;BME280;2964;42.144;24.730;2024-02-26T03:00:36;143975.75;;;9.60;99.86
5877;BME280;2964;42.144;24.730;2024-02-26T03:03:03;143810.09;;;8.92;99.68
5877;BME280;2964;42.144;24.730;2024-02-26T03:05:29;143906.75;;;9.32;100.00
5877;BME280;2964;42.144;24.730;2024-02-26T03:07:56;143909.22;;;9.33;100.00
5877;BME280;2964;42.144;24.730;2024-02-26T03:10:23;143901.72;;;9.30;100.00
5877;BME280;2964;42.144;24.730;2024-02-26T03:12:51;143923.00;;;9.38;99.67
5877;BME280;2964;42.144;24.730;2024-02-26T03:15:17;143974.50;;;9.59;99.77
5877;BME280;2964;42.144;24.730;2024-02-26T03:17:44;143960.69;;;9.54;99.84
5877;BME280;2964;42.144;24.730;2024-02-26T03:20:11;144078.69;;;10.02;99.53
5877;BME280;2964;42.144;24.730;2024-02-26T03:22:38;144035.97;;;9.84;99.41
5877;BME280;2964;42.144;24.730;2024-02-26T03:25:06;144041.00;;;9.86;99.38
5877;BME280;2964;42.144;24.730;2024-02-26T03:27:32;143993.31;;;9.67;99.62
5877;BME280;2964;42.144;24.730;2024-02-26T03:30:01;143968.19;;;9.57;99.74
5877;BME280;2964;42.144;24.730;2024-02-26T03:32:27;143988.31;;;9.65;99.82
5877;BME280;2964;42.144;24.730;2024-02-26T03:34:54;143950.63;;;9.50;99.94
5877;BME280;2964;42.144;24.730;2024-02-26T03:37:21;144013.38;;;9.75;99.89
5877;BME280;2964;42.144;24.730;2024-02-26T03:39:48;144072.38;;;9.99;99.65
5877;BME280;2964;42.144;24.730;2024-02-26T03:42:14;144053.56;;;9.92;99.57
5877;BME280;2964;42.144;24.730;2024-02-26T03:44:41;144024.69;;;9.80;99.73
5877;BME280;2964;42.144;24.730;2024-02-26T03:47:09;144018.41;;;9.77;99.63
5877;BME280;2964;42.144;24.730;2024-02-26T03:49:36;144071.13;;;9.99;99.66
5877;BME280;2964;42.144;24.730;2024-02-26T03:52:03;144105.06;;;10.13;99.42
5877;BME280;2964;42.144;24.730;2024-02-26T03:54:30;144115.09;;;10.17;99.49
5877;BME280;2964;42.144;24.730;2024-02-26T03:56:56;144100.03;;;10.11;99.43
5877;BME280;2964;42.144;24.730;2024-02-26T03:59:23;144101.28;;;10.11;99.38
5877;BME280;2964;42.144;24.730;2024-02-26T04:01:50;144103.78;;;10.12;99.29
5877;BME280;2964;42.144;24.730;2024-02-26T04:04:18;144131.41;;;10.23;99.43
5877;BME280;2964;42.144;24.730;2024-02-26T04:06:45;144058.56;;;9.94;99.18
5877;BME280;2964;42.144;24.730;2024-02-26T04:09:13;144113.84;;;10.16;99.17
5877;BME280;2964;42.144;24.730;2024-02-26T04:11:40;144107.53;;;10.14;99.13
5877;BME280;2964;42.144;24.730;2024-02-26T04:14:08;144131.41;;;10.23;99.27
5877;BME280;2964;42.144;24.730;2024-02-26T04:16:36;144067.38;;;9.97;99.10
5877;BME280;2964;42.144;24.730;2024-02-26T04:19:03;144056.09;;;9.93;99.27
5877;BME280;2964;42.144;24.730;2024-02-26T04:21:31;143944.38;;;9.47;99.53
5877;BME280;2964;42.144;24.730;2024-02-26T04:23:58;144094.97;;;10.09;99.24
5877;BME280;2964;42.144;24.730;2024-02-26T04:26:27;144098.75;;;10.10;99.17
5877;BME280;2964;42.144;24.730;2024-02-26T04:28:53;144145.25;;;10.29;99.02
5877;BME280;2964;42.144;24.730;2024-02-26T04:31:20;144110.06;;;10.15;99.09
5877;BME280;2964;42.144;24.730;2024-02-26T04:33:47;144116.34;;;10.17;99.12
5877;BME280;2964;42.144;24.730;2024-02-26T04:36:14;144160.34;;;10.35;99.14
5877;BME280;2964;42.144;24.730;2024-02-26T04:38:42;144138.94;;;10.27;99.06
5877;BME280;2964;42.144;24.730;2024-02-26T04:41:09;144125.13;;;10.21;99.07
5877;BME280;2964;42.144;24.730;2024-02-26T04:43:36;144115.09;;;10.17;99.17
5877;BME280;2964;42.144;24.730;2024-02-26T04:46:06;144126.38;;;10.21;99.10
5877;BME280;2964;42.144;24.730;2024-02-26T04:48:33;144120.13;;;10.19;99.08
5877;BME280;2964;42.144;24.730;2024-02-26T04:51:00;144093.75;;;10.08;99.16
5877;BME280;2964;42.144;24.730;2024-02-26T04:53:27;144118.88;;;10.18;98.99
5877;BME280;2964;42.144;24.730;2024-02-26T04:55:55;144142.72;;;10.28;98.94
5877;BME280;2964;42.144;24.730;2024-02-26T04:58:22;144103.78;;;10.12;99.02
5877;BME280;2964;42.144;24.730;2024-02-26T05:00:49;144105.06;;;10.13;99.11
5877;BME280;2964;42.144;24.730;2024-02-26T05:03:16;144121.34;;;10.19;99.03
5877;BME280;2964;42.144;24.730;2024-02-26T05:05:43;144071.13;;;9.99;99.04
5877;BME280;2964;42.144;24.730;2024-02-26T05:08:09;144115.09;;;10.17;99.17
5877;BME280;2964;42.144;24.730;2024-02-26T05:10:36;144061.09;;;9.95;99.30
5877;BME280;2964;42.144;24.730;2024-02-26T05:13:07;144041.00;;;9.86;99.00
5877;BME280;2964;42.144;24.730;2024-02-26T05:15:34;144028.47;;;9.81;98.88
5877;BME280;2964;42.144;24.730;2024-02-26T05:18:00;144042.28;;;9.87;98.78
5877;BME280;2964;42.144;24.730;2024-02-26T05:20:27;144008.38;;;9.73;98.86
5877;BME280;2964;42.144;24.730;2024-02-26T05:22:54;143874.06;;;9.18;98.83
5877;BME280;2964;42.144;24.730;2024-02-26T05:25:21;144009.59;;;9.74;98.66
5877;BME280;2964;42.144;24.730;2024-02-26T05:27:47;143992.06;;;9.66;98.75
5877;BME280;2964;42.144;24.730;2024-02-26T05:30:16;144012.13;;;9.75;98.72
5877;BME280;2964;42.144;24.730;2024-02-26T05:32:42;143998.34;;;9.69;98.65
5877;BME280;2964;42.144;24.730;2024-02-26T05:35:09;144083.69;;;10.04;98.46
5877;BME280;2964;42.144;24.730;2024-02-26T05:37:36;144041.00;;;9.86;98.64
5877;BME280;2964;42.144;24.730;2024-02-26T05:40:03;144022.16;;;9.79;98.73
5877;BME280;2964;42.144;24.730;2024-02-26T05:42:31;144018.41;;;9.77;98.68
5877;BME280;2964;42.144;24.730;2024-02-26T05:44:58;144030.97;;;9.82;98.61
5877;BME280;2964;42.144;24.730;2024-02-26T05:47:32;144062.34;;;9.95;98.58
5877;BME280;2964;42.144;24.730;2024-02-26T05:49:58;144054.78;;;9.92;98.63
5877;BME280;2964;42.144;24.730;2024-02-26T05:52:26;144072.38;;;9.99;98.59
5877;BME280;2964;42.144;24.730;2024-02-26T05:54:52;144118.88;;;10.18;98.48
5877;BME280;2964;42.144;24.730;2024-02-26T05:57:19;144107.53;;;10.14;98.60
5877;BME280;2964;42.144;24.730;2024-02-26T05:59:46;144156.56;;;10.34;98.51
5877;BME280;2964;42.144;24.730;2024-02-26T06:02:13;144175.41;;;10.41;98.43
5877;BME280;2964;42.144;24.730;2024-02-26T06:04:41;144259.56;;;10.76;98.08
5877;BME280;2964;42.144;24.730;2024-02-26T06:07:07;144250.78;;;10.72;98.34
5877;BME280;2964;42.144;24.730;2024-02-26T06:09:34;144236.97;;;10.67;98.50
5877;BME280;2964;42.144;24.730;2024-02-26T06:12:01;144298.50;;;10.92;98.22
5877;BME280;2964;42.144;24.730;2024-02-26T06:14:28;144219.38;;;10.59;98.77
5877;BME280;2964;42.144;24.730;2024-02-26T06:16:54;144249.53;;;10.72;98.51
5877;BME280;2964;42.144;24.730;2024-02-26T06:19:21;144218.13;;;10.59;98.81
5877;BME280;2964;42.144;24.730;2024-02-26T06:21:49;144233.19;;;10.65;98.81
5877;BME280;2964;42.144;24.730;2024-02-26T06:24:16;144342.50;;;11.10;98.06
5877;BME280;2964;42.144;24.730;2024-02-26T06:26:43;144278.41;;;10.84;98.40
5877;BME280;2964;42.144;24.730;2024-02-26T06:29:09;144269.63;;;10.80;98.65
5877;BME280;2964;42.144;24.730;2024-02-26T06:31:36;144332.44;;;11.06;97.83
5877;BME280;2964;42.144;24.730;2024-02-26T06:34:03;144327.44;;;11.04;97.73
5877;BME280;2964;42.144;24.730;2024-02-26T06:36:29;144355.06;;;11.15;97.63
5877;BME280;2964;42.144;24.730;2024-02-26T06:38:58;144392.75;;;11.30;97.09
5877;BME280;2964;42.144;24.730;2024-02-26T06:41:25;144469.41;;;11.62;96.45
5877;BME280;2964;42.144;24.730;2024-02-26T06:43:53;144401.56;;;11.34;96.94
5877;BME280;2964;42.144;24.730;2024-02-26T06:46:19;144372.66;;;11.22;97.35
5877;BME280;2964;42.144;24.730;2024-02-26T06:48:47;144347.50;;;11.12;97.91
5877;BME280;2964;42.144;24.730;2024-02-26T06:51:14;144370.13;;;11.21;97.71
5877;BME280;2964;42.144;24.730;2024-02-26T06:53:41;144400.31;;;11.33;97.17
5877;BME280;2964;42.144;24.730;2024-02-26T06:56:09;144350.03;;;11.13;97.96
5877;BME280;2964;42.144;24.730;2024-02-26T06:58:35;144389.00;;;11.29;97.19
5877;BME280;2964;42.144;24.730;2024-02-26T07:01:02;144331.19;;;11.05;97.85
5877;BME280;2964;42.144;24.730;2024-02-26T07:03:29;144370.13;;;11.21;98.05
5877;BME280;2964;42.144;24.730;2024-02-26T07:05:56;144450.56;;;11.54;97.15
5877;BME280;2964;42.144;24.730;2024-02-26T07:08:22;144412.88;;;11.38;97.57
5877;BME280;2964;42.144;24.730;2024-02-26T07:10:49;144438.00;;;11.49;97.72
5877;BME280;2964;42.144;24.730;2024-02-26T07:13:17;144427.94;;;11.45;97.54
5877;BME280;2964;42.144;24.730;2024-02-26T07:15:44;144495.84;;;11.72;96.83
5877;BME280;2964;42.144;24.730;2024-02-26T07:18:11;144507.16;;;11.77;96.69
5877;BME280;2964;42.144;24.730;2024-02-26T07:20:37;144533.59;;;11.88;96.51
5877;BME280;2964;42.144;24.730;2024-02-26T07:23:04;144556.25;;;11.97;95.91
5877;BME280;2964;42.144;24.730;2024-02-26T07:25:32;144573.81;;;12.04;95.75
5877;BME280;2964;42.144;24.730;2024-02-26T07:27:58;144460.63;;;11.58;97.44
5877;BME280;2964;42.144;24.730;2024-02-26T07:30:26;144453.09;;;11.55;98.05
5877;BME280;2964;42.144;24.730;2024-02-26T07:32:53;144476.97;;;11.65;98.16
5877;BME280;2964;42.144;24.730;2024-02-26T07:35:20;144444.31;;;11.51;97.90
5877;BME280;2964;42.144;24.730;2024-02-26T07:37:48;144475.75;;;11.64;98.36
5877;BME280;2964;42.144;24.730;2024-02-26T07:40:15;144444.31;;;11.51;98.29
5877;BME280;2964;42.144;24.730;2024-02-26T07:42:42;144417.91;;;11.40;98.61
5877;BME280;2964;42.144;24.730;2024-02-26T07:45:09;144529.81;;;11.86;97.28
5877;BME280;2964;42.144;24.730;2024-02-26T07:47:37;144515.97;;;11.81;97.63
5877;BME280;2964;42.144;24.730;2024-02-26T07:50:07;144495.84;;;11.72;97.77
5877;BME280;2964;42.144;24.730;2024-02-26T07:52:34;144483.25;;;11.67;97.42
5877;BME280;2964;42.144;24.730;2024-02-26T07:55:00;144612.81;;;12.20;96.26
5877;BME280;2964;42.144;24.730;2024-02-26T07:57:27;144585.16;;;12.09;96.15
5877;BME280;2964;42.144;24.730;2024-02-26T07:59:54;144624.16;;;12.25;96.14
5877;BME280;2964;42.144;24.730;2024-02-26T08:02:21;144588.94;;;12.10;95.72
5877;BME280;2964;42.144;24.730;2024-02-26T08:04:49;144524.78;;;11.84;96.13
5877;BME280;2964;42.144;24.730;2024-02-26T08:07:16;144495.84;;;11.72;96.44
5877;BME280;2964;42.144;24.730;2024-02-26T08:09:43;144621.63;;;12.24;95.62
5877;BME280;2964;42.144;24.730;2024-02-26T08:12:09;144586.41;;;12.09;95.50
5877;BME280;2964;42.144;24.730;2024-02-26T08:14:36;144563.78;;;12.00;96.04
5877;BME280;2964;42.144;24.730;2024-02-26T08:17:03;144581.38;;;12.07;95.56
5877;BME280;2964;42.144;24.730;2024-02-26T08:19:30;144469.41;;;11.62;96.56
5877;BME280;2964;42.144;24.730;2024-02-26T08:21:58;144514.69;;;11.80;96.64
5877;BME280;2964;42.144;24.730;2024-02-26T08:24:24;144591.44;;;12.11;95.70
5877;BME280;2964;42.144;24.730;2024-02-26T08:26:51;144551.19;;;11.95;95.66
5877;BME280;2964;42.144;24.730;2024-02-26T08:29:18;144638.00;;;12.30;94.55
5877;BME280;2964;42.144;24.730;2024-02-26T08:31:44;144626.66;;;12.26;94.66
5877;BME280;2964;42.144;24.730;2024-02-26T08:34:11;144697.13;;;12.54;93.93
5877;BME280;2964;42.144;24.730;2024-02-26T08:36:38;144807.81;;;13.00;92.45
5877;BME280;2964;42.144;24.730;2024-02-26T08:39:06;144912.34;;;13.42;91.88
5877;BME280;2964;42.144;24.730;2024-02-26T08:41:34;144897.25;;;13.36;91.04
5877;BME280;2964;42.144;24.730;2024-02-26T08:44:00;144806.59;;;12.99;91.68
5877;BME280;2964;42.144;24.730;2024-02-26T08:46:27;144679.50;;;12.47;92.06
5877;BME280;2964;42.144;24.730;2024-02-26T08:48:54;144671.94;;;12.44;93.04
5877;BME280;2964;42.144;24.730;2024-02-26T08:51:20;144765.06;;;12.82;92.04
5877;BME280;2964;42.144;24.730;2024-02-26T08:53:47;144772.59;;;12.85;92.29
5877;BME280;2964;42.144;24.730;2024-02-26T08:56:16;144821.66;;;13.05;91.76
5877;BME280;2964;42.144;24.730;2024-02-26T08:58:43;144961.44;;;13.62;90.50
5877;BME280;2964;42.144;24.730;2024-02-26T09:01:10;145062.19;;;14.03;89.06
5877;BME280;2964;42.144;24.730;2024-02-26T09:03:36;145073.53;;;14.08;88.42
5877;BME280;2964;42.144;24.730;2024-02-26T09:06:03;145101.25;;;14.19;88.14
5877;BME280;2964;42.144;24.730;2024-02-26T09:08:31;145101.25;;;14.19;88.17
5877;BME280;2964;42.144;24.730;2024-02-26T09:10:58;144985.38;;;13.72;89.54
5877;BME280;2964;42.144;24.730;2024-02-26T09:13:26;145072.28;;;14.07;89.25
5877;BME280;2964;42.144;24.730;2024-02-26T09:15:52;145026.97;;;13.89;90.69
5877;BME280;2964;42.144;24.730;2024-02-26T09:18:20;145174.31;;;14.49;87.76
5877;BME280;2964;42.144;24.730;2024-02-26T09:20:46;145155.41;;;14.41;87.92
5877;BME280;2964;42.144;24.730;2024-02-26T09:23:13;145193.19;;;14.57;87.93
5877;BME280;2964;42.144;24.730;2024-02-26T09:25:40;145145.34;;;14.37;88.17
5877;BME280;2964;42.144;24.730;2024-02-26T09:28:06;145227.28;;;14.71;87.55
5877;BME280;2964;42.144;24.730;2024-02-26T09:30:34;145236.13;;;14.74;87.19
5877;BME280;2964;42.144;24.730;2024-02-26T09:33:01;145171.81;;;14.48;88.42
5877;BME280;2964;42.144;24.730;2024-02-26T09:35:28;145215.94;;;14.66;87.85
5877;BME280;2964;42.144;24.730;2024-02-26T09:37:55;145256.25;;;14.82;87.67
5877;BME280;2964;42.144;24.730;2024-02-26T09:40:22;145289.06;;;14.96;86.85
5877;BME280;2964;42.144;24.730;2024-02-26T09:42:53;145285.28;;;14.94;86.46
5877;BME280;2964;42.144;24.730;2024-02-26T09:45:25;145222.25;;;14.69;86.64
5877;BME280;2964;42.144;24.730;2024-02-26T09:47:55;145329.34;;;15.12;85.98
5877;BME280;2964;42.144;24.730;2024-02-26T09:50:22;145413.84;;;15.47;85.47
5877;BME280;2964;42.144;24.730;2024-02-26T09:52:49;145341.97;;;15.17;85.84
5877;BME280;2964;42.144;24.730;2024-02-26T09:55:17;145500.88;;;15.82;84.20
5877;BME280;2964;42.144;24.730;2024-02-26T09:57:46;145541.25;;;15.98;84.29
5877;BME280;2964;42.144;24.730;2024-02-26T10:00:16;145523.59;;;15.91;84.46
5877;BME280;2964;42.144;24.730;2024-02-26T10:02:45;145511.03;;;15.86;84.09
5877;BME280;2964;42.144;24.730;2024-02-26T10:05:14;145376.03;;;15.31;85.58
5877;BME280;2964;42.144;24.730;2024-02-26T10:07:44;145707.81;;;16.66;80.70
5877;BME280;2964;42.144;24.730;2024-02-26T10:10:10;145892.19;;;17.41;78.12
5877;BME280;2964;42.144;24.730;2024-02-26T10:12:37;145972.97;;;17.74;77.07
5877;BME280;2964;42.144;24.730;2024-02-26T10:15:04;145952.78;;;17.66;75.98
5877;BME280;2964;42.144;24.730;2024-02-26T10:17:31;145696.44;;;16.62;79.03
5877;BME280;2964;42.144;24.730;2024-02-26T10:20:11;145778.56;;;16.95;77.67
5877;BME280;2964;42.144;24.730;2024-02-26T10:22:40;145672.47;;;16.52;79.30
5877;BME280;2964;42.144;24.730;2024-02-26T10:25:08;145608.13;;;16.26;80.31
5877;BME280;2964;42.144;24.730;2024-02-26T10:27:35;145460.47;;;15.66;80.66
5877;BME280;2964;42.144;24.730;2024-02-26T10:30:03;145360.88;;;15.25;83.16
5877;BME280;2964;42.144;24.730;2024-02-26T10:32:30;145528.63;;;15.93;80.26
5877;BME280;2964;42.144;24.730;2024-02-26T10:34:57;145609.38;;;16.26;78.90
5877;BME280;2964;42.144;24.730;2024-02-26T10:37:23;145591.72;;;16.19;78.88
5877;BME280;2964;42.144;24.730;2024-02-26T10:39:51;145702.75;;;16.64;78.46
5877;BME280;2964;42.144;24.730;2024-02-26T10:42:18;145651.00;;;16.43;78.79
5877;BME280;2964;42.144;24.730;2024-02-26T10:44:45;145570.28;;;16.10;78.88
5877;BME280;2964;42.144;24.730;2024-02-26T10:47:14;145543.81;;;15.99;80.45
5877;BME280;2964;42.144;24.730;2024-02-26T10:49:45;145599.28;;;16.22;80.23
5877;BME280;2964;42.144;24.730;2024-02-26T10:52:13;145558.91;;;16.06;80.52
5877;BME280;2964;42.144;24.730;2024-02-26T10:54:41;145485.78;;;15.76;81.15
5877;BME280;2964;42.144;24.730;2024-02-26T10:57:11;145672.47;;;16.52;78.74
5877;BME280;2964;42.144;24.730;2024-02-26T10:59:39;145591.72;;;16.19;78.62
5877;BME280;2964;42.144;24.730;2024-02-26T11:02:09;145648.50;;;16.42;77.13
5877;BME280;2964;42.144;24.730;2024-02-26T11:04:37;145659.84;;;16.47;76.08
5877;BME280;2964;42.144;24.730;2024-02-26T11:07:05;145495.84;;;15.80;75.73
5877;BME280;2964;42.144;24.730;2024-02-26T11:09:32;145558.91;;;16.06;76.67
5877;BME280;2964;42.144;24.730;2024-02-26T11:11:59;145538.75;;;15.97;77.31
5877;BME280;2964;42.144;24.730;2024-02-26T11:14:29;145528.63;;;15.93;76.74
5877;BME280;2964;42.144;24.730;2024-02-26T11:16:57;145651.00;;;16.43;74.52
5877;BME280;2964;42.144;24.730;2024-02-26T11:19:24;145584.16;;;16.16;73.04
5877;BME280;2964;42.144;24.730;2024-02-26T11:21:52;145541.25;;;15.98;73.12
5877;BME280;2964;42.144;24.730;2024-02-26T11:24:19;145647.25;;;16.42;72.95
5877;BME280;2964;42.144;24.730;2024-02-26T11:26:49;145516.06;;;15.88;73.21
5877;BME280;2964;42.144;24.730;2024-02-26T11:29:22;145499.63;;;15.81;73.66
5877;BME280;2964;42.144;24.730;2024-02-26T11:31:51;145570.28;;;16.10;74.19
5877;BME280;2964;42.144;24.730;2024-02-26T11:34:18;145609.38;;;16.26;74.59
5877;BME280;2964;42.144;24.730;2024-02-26T11:36:45;145596.75;;;16.21;74.76
5877;BME280;2964;42.144;24.730;2024-02-26T11:39:12;145563.97;;;16.08;74.40
5877;BME280;2964;42.144;24.730;2024-02-26T11:41:42;145629.59;;;16.34;73.09
5877;BME280;2964;42.144;24.730;2024-02-26T11:44:09;145664.88;;;16.49;73.09
5877;BME280;2964;42.144;24.730;2024-02-26T11:46:39;145634.63;;;16.36;73.60
5877;BME280;2964;42.144;24.730;2024-02-26T11:49:33;145653.53;;;16.44;73.31
5877;BME280;2964;42.144;24.730;2024-02-26T11:52:05;145591.72;;;16.19;74.03
5877;BME280;2964;42.144;24.730;2024-02-26T11:54:39;145663.63;;;16.48;73.82
5877;BME280;2964;42.144;24.730;2024-02-26T11:57:23;145730.53;;;16.75;72.74
5877;BME280;2964;42.144;24.730;2024-02-26T11:59:50;145534.97;;;15.96;74.71
5877;BME280;2964;42.144;24.730;2024-02-26T12:02:43;145630.84;;;16.35;73.67
5877;BME280;2964;42.144;24.730;2024-02-26T12:05:13;145683.84;;;16.56;73.07
5877;BME280;2964;42.144;24.730;2024-02-26T12:07:43;145662.38;;;16.48;72.56
5877;BME280;2964;42.144;24.730;2024-02-26T12:10:24;145778.56;;;16.95;71.83
5877;BME280;2964;42.144;24.730;2024-02-26T12:12:58;145704.00;;;16.65;73.03
5877;BME280;2964;42.144;24.730;2024-02-26T12:15:30;145687.59;;;16.58;73.30
5877;BME280;2964;42.144;24.730;2024-02-26T12:17:58;145704.00;;;16.65;72.37
5877;BME280;2964;42.144;24.730;2024-02-26T12:20:27;145709.06;;;16.67;72.68
5877;BME280;2964;42.144;24.730;2024-02-26T12:22:55;145750.75;;;16.84;72.00
5877;BME280;2964;42.144;24.730;2024-02-26T12:25:25;145782.31;;;16.96;70.54
5877;BME280;2964;42.144;24.730;2024-02-26T12:27:52;145735.56;;;16.77;72.46
5877;BME280;2964;42.144;24.730;2024-02-26T12:30:19;145889.63;;;17.40;70.76
5877;BME280;2964;42.144;24.730;2024-02-26T12:32:47;145707.81;;;16.66;71.77
5877;BME280;2964;42.144;24.730;2024-02-26T12:35:15;145851.78;;;17.25;71.17
5877;BME280;2964;42.144;24.730;2024-02-26T12:37:43;145916.16;;;17.51;70.29
5877;BME280;2964;42.144;24.730;2024-02-26T12:40:11;145922.44;;;17.53;70.30
5877;BME280;2964;42.144;24.730;2024-02-26T12:42:39;145818.91;;;17.11;70.57
5877;BME280;2964;42.144;24.730;2024-02-26T12:45:06;145917.41;;;17.51;70.51
5877;BME280;2964;42.144;24.730;2024-02-26T12:47:36;145952.78;;;17.66;69.74
5877;BME280;2964;42.144;24.730;2024-02-26T12:50:03;145736.81;;;16.78;70.89
5877;BME280;2964;42.144;24.730;2024-02-26T12:52:30;145753.28;;;16.85;71.59
5877;BME280;2964;42.144;24.730;2024-02-26T12:54:59;145821.47;;;17.12;71.15
5877;BME280;2964;42.144;24.730;2024-02-26T12:57:26;145878.28;;;17.35;70.53
5877;BME280;2964;42.144;24.730;2024-02-26T12:59:55;145793.69;;;17.01;70.82
5877;BME280;2964;42.144;24.730;2024-02-26T13:02:23;145807.56;;;17.07;71.28
5877;BME280;2964;42.144;24.730;2024-02-26T13:04:50;145889.63;;;17.40;70.58